Terminal Aerodrome Forecast
Issued by NWS Charleston, WV

Current Version | Previous Version | Graphics & Text | Print | Product List | Glossary On
Versions: 1 2 3 4 5 6 7 8 9 10 11 12 13 14 15 16 17 18 19 20 21 22 23 24 25 26 27 28 29 30 31
000
FTUS41 KRLX 201731 AAA
TAFCRW
TAF AMD
KCRW 201731Z 2018/2118 01004KT P6SM SCT150
     FM210900 01002KT 5SM -SHRA OVC025
     FM211200 02003KT 3SM -SHRA OVC015
     FM211500 34005KT P6SM BKN035=

USA.gov is the U.S. government's official web portal to all federal, state and local government web resources and services.